Time;durP1;ratioP1;P1;durP2;ratioP2;P2;SDS_P1;SDS_P2;PMS_P1;PMS_P2;Temp;Humidity;BMP_temperature;BMP_pressure;BME280_temperature;BME280_humidity;BME280_pressure;Samples;Min_cycle;Max_cycle;Signal;HPM_P1;HPM_P2
2024/03/06 00:00:58;;;;;;;4.50;3.40;;;7.30;99.90;;;;;;5051964;28;20440;-85
2024/03/06 00:03:24;;;;;;;4.13;3.43;;;7.50;99.90;;;;;;5053795;28;20185;-86
2024/03/06 00:05:49;;;;;;;4.50;3.73;;;7.30;99.90;;;;;;5052902;28;20209;-85
2024/03/06 00:08:15;;;;;;;4.00;3.40;;;7.90;99.90;;;;;;5053240;28;20238;-86
2024/03/06 00:10:41;;;;;;;3.80;3.07;;;7.50;99.90;;;;;;5055020;28;20208;-86
2024/03/06 00:13:07;;;;;;;3.78;3.25;;;8.00;99.90;;;;;;5054297;28;20185;-86
2024/03/06 00:15:33;;;;;;;4.28;3.88;;;8.00;99.90;;;;;;5050232;28;20293;-86
2024/03/06 00:17:59;;;;;;;3.60;3.30;;;7.40;99.90;;;;;;5067792;28;20319;-86
2024/03/06 00:20:25;;;;;;;3.97;3.50;;;7.40;99.90;;;;;;5053616;28;20181;-86
2024/03/06 00:22:50;;;;;;;3.83;3.53;;;7.60;99.90;;;;;;5054608;28;20201;-85
2024/03/06 00:25:16;;;;;;;3.90;3.20;;;7.30;99.90;;;;;;5059253;28;20364;-86
2024/03/06 00:27:41;;;;;;;3.50;3.20;;;7.80;99.90;;;;;;5054099;28;20192;-86
2024/03/06 00:30:07;;;;;;;3.37;3.03;;;7.80;99.90;;;;;;5055097;28;20203;-86
2024/03/06 00:32:33;;;;;;;3.20;2.80;;;7.40;99.90;;;;;;5060417;28;20224;-84
2024/03/06 00:35:00;;;;;;;3.40;3.10;;;7.50;99.90;;;;;;5064678;28;20197;-85
2024/03/06 00:37:27;;;;;;;3.03;2.83;;;7.30;99.90;;;;;;5058013;28;20189;-86
2024/03/06 00:39:52;;;;;;;3.22;2.90;;;7.90;99.90;;;;;;5054248;28;20221;-85
2024/03/06 00:42:18;;;;;;;4.07;3.10;;;7.30;99.90;;;;;;5059951;28;20188;-85
2024/03/06 00:44:43;;;;;;;3.27;3.00;;;7.90;99.90;;;;;;5056344;28;20738;-85
2024/03/06 00:47:09;;;;;;;3.60;2.60;;;7.10;99.90;;;;;;5061212;28;20216;-85
2024/03/06 00:49:34;;;;;;;5.33;2.83;;;7.60;99.90;;;;;;5060224;28;20539;-85
2024/03/06 00:52:00;;;;;;;2.60;2.40;;;7.00;99.90;;;;;;5055740;28;20197;-85
2024/03/06 00:54:25;;;;;;;3.10;2.80;;;7.50;99.90;;;;;;5056131;28;20231;-85
2024/03/06 00:56:51;;;;;;;6.00;2.90;;;8.00;99.90;;;;;;5056475;28;20774;-86
2024/03/06 00:59:16;;;;;;;2.73;2.53;;;6.90;99.90;;;;;;5055308;28;20205;-85
2024/03/06 01:01:42;;;;;;;4.30;3.33;;;7.40;99.90;;;;;;5057089;28;20181;-85
2024/03/06 01:04:07;;;;;;;3.83;2.87;;;7.80;99.90;;;;;;5056655;28;20239;-85
2024/03/06 01:06:33;;;;;;;5.33;3.23;;;7.70;99.90;;;;;;5059009;28;20292;-86
2024/03/06 01:08:58;;;;;;;4.80;3.07;;;7.50;99.90;;;;;;5055328;28;20200;-86
2024/03/06 01:11:26;;;;;;;3.20;3.00;;;7.40;99.90;;;;;;5057638;28;20272;-86
2024/03/06 01:13:51;;;;;;;3.17;2.80;;;7.80;99.90;;;;;;5058191;28;20212;-86
2024/03/06 01:16:18;;;;;;;5.83;3.27;;;7.70;99.90;;;;;;5058474;28;20222;-84
2024/03/06 01:18:43;;;;;;;3.50;3.20;;;7.50;99.90;;;;;;5060031;28;20565;-85
2024/03/06 01:21:09;;;;;;;3.60;3.07;;;7.30;99.90;;;;;;5058462;28;20192;-85
2024/03/06 01:23:34;;;;;;;4.40;3.13;;;7.40;99.90;;;;;;5060985;28;20185;-86
2024/03/06 01:26:00;;;;;;;3.30;2.97;;;7.50;99.90;;;;;;5062062;28;20209;-86
2024/03/06 01:28:26;;;;;;;3.27;2.90;;;7.50;99.90;;;;;;5059956;28;20432;-85
2024/03/06 01:30:51;;;;;;;3.10;2.80;;;7.90;99.90;;;;;;5061052;28;20371;-86
2024/03/06 01:33:17;;;;;;;2.70;2.50;;;7.80;99.90;;;;;;5058019;28;20182;-86
2024/03/06 01:35:42;;;;;;;3.87;3.10;;;7.30;99.90;;;;;;5060266;28;20228;-86
2024/03/06 01:38:10;;;;;;;3.80;3.27;;;7.40;99.90;;;;;;5057660;28;20194;-84
2024/03/06 01:40:35;;;;;;;3.42;3.13;;;7.20;99.90;;;;;;5057031;28;20181;-86
2024/03/06 01:43:01;;;;;;;3.67;3.37;;;7.30;99.90;;;;;;5057512;28;20182;-85
2024/03/06 01:45:26;;;;;;;2.90;2.70;;;7.20;99.90;;;;;;5057580;28;20197;-86
2024/03/06 01:47:52;;;;;;;3.23;2.87;;;7.80;99.90;;;;;;5058757;28;20271;-85
2024/03/06 01:50:18;;;;;;;3.80;3.50;;;7.80;99.90;;;;;;5056086;28;20201;-86
2024/03/06 01:52:45;;;;;;;3.65;3.25;;;7.40;99.90;;;;;;5057974;28;20223;-86
2024/03/06 01:55:12;;;;;;;4.78;3.20;;;7.30;99.90;;;;;;5054451;28;20239;-86
2024/03/06 01:57:39;;;;;;;3.72;3.05;;;7.90;99.90;;;;;;5077213;28;20177;-86
2024/03/06 02:00:08;;;;;;;3.30;3.00;;;6.90;99.90;;;;;;5055913;28;20178;-86
2024/03/06 02:02:34;;;;;;;3.75;3.00;;;7.60;99.90;;;;;;5060907;28;20182;-85
2024/03/06 02:05:00;;;;;;;4.30;3.40;;;7.60;99.90;;;;;;5056646;28;20198;-85
2024/03/06 02:07:25;;;;;;;4.17;3.77;;;7.60;99.90;;;;;;5040621;28;20719;-84
2024/03/06 02:09:51;;;;;;;3.30;3.00;;;7.40;99.90;;;;;;5060336;28;20474;-85
2024/03/06 02:12:18;;;;;;;2.90;2.70;;;7.50;99.90;;;;;;5059545;28;20216;-86
2024/03/06 02:14:43;;;;;;;3.50;3.20;;;7.50;99.90;;;;;;5043062;28;20188;-85
2024/03/06 02:17:09;;;;;;;3.60;3.23;;;7.10;99.90;;;;;;5056599;28;20206;-85
2024/03/06 02:19:43;;;;;;;3.77;2.80;;;7.20;99.90;;;;;;5057498;28;20182;-85
2024/03/06 02:22:09;;;;;;;4.13;3.00;;;7.40;99.90;;;;;;5058673;28;20185;-85
2024/03/06 02:24:36;;;;;;;4.15;2.60;;;7.20;99.90;;;;;;5052092;28;20216;-85
2024/03/06 02:27:02;;;;;;;3.58;2.90;;;7.10;99.90;;;;;;5056884;28;20236;-85
2024/03/06 02:29:28;;;;;;;3.22;2.80;;;7.30;99.90;;;;;;5067619;28;20209;-85
2024/03/06 02:31:53;;;;;;;5.00;2.57;;;7.40;99.90;;;;;;5059909;28;20189;-85
2024/03/06 02:34:19;;;;;;;4.10;3.17;;;6.90;99.90;;;;;;5055215;28;20547;-85
2024/03/06 02:36:45;;;;;;;4.10;3.27;;;7.30;99.90;;;;;;5057583;28;20224;-86
2024/03/06 02:39:10;;;;;;;5.03;4.03;;;7.20;99.90;;;;;;5059268;28;20431;-84
2024/03/06 02:41:36;;;;;;;4.43;3.83;;;7.40;99.90;;;;;;5055619;28;20848;-85
2024/03/06 02:44:02;;;;;;;4.13;3.83;;;7.20;99.90;;;;;;5073138;28;20732;-84
2024/03/06 02:46:28;;;;;;;5.25;4.30;;;7.30;99.90;;;;;;5059383;28;20464;-85
2024/03/06 02:48:54;;;;;;;4.30;3.90;;;7.50;99.90;;;;;;5063923;28;20188;-85
2024/03/06 02:51:20;;;;;;;8.07;3.92;;;7.20;99.90;;;;;;5057425;28;20205;-85
2024/03/06 02:53:46;;;;;;;5.10;3.67;;;7.00;99.90;;;;;;5055526;28;20549;-85
2024/03/06 02:56:19;;;;;;;3.97;3.57;;;7.10;99.90;;;;;;5059690;28;20615;-84
2024/03/06 02:58:45;;;;;;;5.13;4.10;;;7.10;99.90;;;;;;5055894;28;20185;-86
2024/03/06 03:01:11;;;;;;;4.45;4.05;;;7.30;99.90;;;;;;5049859;28;20191;-87
2024/03/06 03:03:36;;;;;;;4.60;4.20;;;7.30;99.90;;;;;;5054653;28;20180;-87
2024/03/06 03:06:02;;;;;;;4.53;4.03;;;7.20;99.90;;;;;;5073184;28;20738;-85
2024/03/06 03:08:28;;;;;;;4.63;3.90;;;7.40;99.90;;;;;;5052539;28;20569;-85
2024/03/06 03:10:53;;;;;;;5.60;4.37;;;7.60;99.90;;;;;;5057042;28;20189;-85
2024/03/06 03:13:19;;;;;;;6.30;4.80;;;7.20;99.90;;;;;;5053729;28;20558;-86
2024/03/06 03:15:44;;;;;;;5.37;4.77;;;7.40;99.90;;;;;;5053883;28;20228;-85
2024/03/06 03:18:10;;;;;;;4.37;3.87;;;7.90;99.90;;;;;;5055563;28;20204;-85
2024/03/06 03:20:36;;;;;;;3.93;3.63;;;6.90;99.90;;;;;;5054705;28;20204;-85
2024/03/06 03:23:02;;;;;;;7.03;4.90;;;6.90;99.90;;;;;;5053239;28;20213;-86
2024/03/06 03:25:27;;;;;;;5.23;4.17;;;7.60;99.90;;;;;;5055961;28;20209;-85
2024/03/06 03:27:53;;;;;;;5.97;4.53;;;7.40;99.90;;;;;;5056852;28;20462;-85
2024/03/06 03:30:21;;;;;;;4.23;3.87;;;7.60;99.90;;;;;;5056310;28;20182;-86
2024/03/06 03:32:47;;;;;;;4.88;4.32;;;7.50;99.90;;;;;;5054499;28;20529;-85
2024/03/06 03:35:13;;;;;;;7.53;4.70;;;7.30;99.90;;;;;;5059268;28;20208;-85
2024/03/06 03:37:38;;;;;;;5.97;5.37;;;7.60;99.90;;;;;;5054283;28;20185;-85
2024/03/06 03:40:06;;;;;;;5.10;4.60;;;7.40;99.90;;;;;;5051260;28;20219;-84
2024/03/06 03:42:32;;;;;;;5.35;4.60;;;7.50;99.90;;;;;;5052275;28;20182;-84
2024/03/06 03:44:58;;;;;;;7.10;4.47;;;;;;;;;;5052644;28;20665;-85
2024/03/06 03:47:24;;;;;;;4.60;3.80;;;7.40;99.90;;;;;;5052803;28;20193;-84
2024/03/06 03:49:49;;;;;;;4.17;3.77;;;7.40;99.90;;;;;;5054110;28;20466;-85
2024/03/06 03:52:15;;;;;;;4.13;3.60;;;7.90;99.90;;;;;;5052839;28;20201;-86
2024/03/06 03:54:41;;;;;;;4.68;4.13;;;7.70;99.90;;;;;;5055425;28;20204;-86
2024/03/06 03:57:08;;;;;;;4.23;3.87;;;7.40;99.90;;;;;;5051971;28;20217;-85
2024/03/06 03:59:33;;;;;;;5.65;4.90;;;7.50;99.90;;;;;;5054507;28;20646;-85
2024/03/06 04:01:59;;;;;;;5.20;3.90;;;7.50;99.90;;;;;;5053284;28;20232;-85
2024/03/06 04:04:24;;;;;;;4.13;3.73;;;7.90;99.90;;;;;;5051228;28;20194;-85
2024/03/06 04:06:50;;;;;;;4.10;3.70;;;7.50;99.90;;;;;;5052592;28;20277;-85
2024/03/06 04:09:15;;;;;;;4.23;3.83;;;7.40;99.90;;;;;;5052138;28;20220;-85
2024/03/06 04:11:41;;;;;;;4.53;4.10;;;7.50;99.90;;;;;;5053964;28;20181;-86
2024/03/06 04:14:07;;;;;;;4.70;3.00;;;7.60;99.90;;;;;;5057510;28;20239;-85
2024/03/06 04:16:34;;;;;;;4.07;3.45;;;7.60;99.90;;;;;;5053631;28;20212;-85
2024/03/06 04:18:59;;;;;;;4.95;3.90;;;7.50;99.90;;;;;;5055118;28;20182;-85
2024/03/06 04:21:25;;;;;;;4.70;3.67;;;7.70;99.90;;;;;;5050655;28;20187;-85
2024/03/06 04:23:50;;;;;;;3.87;3.57;;;7.80;99.90;;;;;;5052066;28;20182;-85
2024/03/06 04:26:17;;;;;;;4.77;3.80;;;8.10;99.90;;;;;;5054309;28;20565;-85
2024/03/06 04:28:43;;;;;;;4.30;3.38;;;7.50;99.90;;;;;;5051699;28;20398;-85
2024/03/06 04:31:09;;;;;;;4.82;3.67;;;6.80;99.90;;;;;;5053990;28;20185;-86
2024/03/06 04:33:34;;;;;;;6.50;3.53;;;7.30;99.90;;;;;;5064856;28;20188;-85
2024/03/06 04:36:07;;;;;;;4.10;3.43;;;7.50;99.90;;;;;;5055728;28;20479;-85
2024/03/06 04:38:32;;;;;;;4.57;3.35;;;7.50;99.90;;;;;;5053443;28;20178;-85
2024/03/06 04:40:58;;;;;;;4.83;4.20;;;7.50;99.90;;;;;;5055878;28;20537;-86
2024/03/06 04:43:24;;;;;;;4.60;3.73;;;7.30;99.90;;;;;;5054249;28;20231;-86
2024/03/06 04:45:49;;;;;;;4.67;4.27;;;7.40;99.90;;;;;;5053093;28;20213;-85
2024/03/06 04:48:15;;;;;;;4.60;4.20;;;7.10;99.90;;;;;;5056611;28;20209;-85
2024/03/06 04:50:41;;;;;;;3.70;3.40;;;7.40;99.90;;;;;;5053513;28;20197;-85
2024/03/06 04:53:06;;;;;;;6.50;5.17;;;7.30;99.90;;;;;;5052131;28;20728;-85
2024/03/06 04:55:32;;;;;;;6.37;4.63;;;7.60;99.90;;;;;;5052726;28;20475;-85
2024/03/06 04:57:58;;;;;;;6.47;5.07;;;7.40;99.90;;;;;;5057230;28;20213;-85
2024/03/06 05:00:23;;;;;;;5.20;4.70;;;7.30;99.90;;;;;;5051020;28;20307;-85
2024/03/06 05:02:49;;;;;;;7.30;4.57;;;7.30;99.90;;;;;;5051856;28;20443;-85
2024/03/06 05:05:15;;;;;;;5.37;4.73;;;7.50;99.90;;;;;;5052900;28;20653;-84
2024/03/06 05:07:40;;;;;;;4.80;4.07;;;7.50;99.90;;;;;;5051362;28;20597;-84
2024/03/06 05:10:07;;;;;;;5.13;4.63;;;7.50;99.90;;;;;;5049154;28;20470;-86
2024/03/06 05:12:34;;;;;;;6.60;5.28;;;7.50;99.90;;;;;;5052990;28;20569;-85
2024/03/06 05:14:59;;;;;;;6.25;4.38;;;7.60;99.90;;;;;;5053190;28;20182;-86
2024/03/06 05:17:25;;;;;;;5.20;4.70;;;7.90;99.90;;;;;;5060620;28;20201;-86
2024/03/06 05:19:50;;;;;;;6.17;5.17;;;7.50;99.90;;;;;;5060928;28;20181;-85
2024/03/06 05:22:16;;;;;;;4.97;4.57;;;7.60;99.90;;;;;;5055205;28;20193;-85
2024/03/06 05:24:43;;;;;;;5.80;5.30;;;7.50;99.90;;;;;;5056926;28;20185;-85
2024/03/06 05:27:13;;;;;;;5.63;5.13;;;7.50;99.90;;;;;;5057534;28;20213;-87
2024/03/06 05:29:39;;;;;;;6.07;5.40;;;7.60;99.90;;;;;;5053962;28;20189;-86
2024/03/06 05:32:06;;;;;;;7.05;5.55;;;7.50;99.90;;;;;;5048191;28;20436;-86
2024/03/06 05:34:33;;;;;;;8.63;6.05;;;7.50;99.90;;;;;;5068630;28;20558;-86
2024/03/06 05:36:59;;;;;;;6.28;5.47;;;7.60;99.90;;;;;;5053002;28;20217;-86
2024/03/06 05:39:24;;;;;;;7.07;5.10;;;7.80;99.90;;;;;;5050746;28;20569;-88
2024/03/06 05:41:50;;;;;;;7.10;6.40;;;7.50;99.90;;;;;;5056357;28;20182;-86
2024/03/06 05:44:16;;;;;;;7.20;5.33;;;7.00;99.90;;;;;;5056426;28;20192;-85
2024/03/06 05:46:41;;;;;;;6.13;5.10;;;7.50;99.90;;;;;;5056052;28;20224;-87
2024/03/06 05:49:07;;;;;;;6.37;4.70;;;7.00;99.90;;;;;;5052866;28;20194;-84
2024/03/06 05:51:32;;;;;;;5.17;4.70;;;7.60;99.90;;;;;;5055779;28;20288;-86
2024/03/06 05:53:58;;;;;;;7.17;5.07;;;7.40;99.90;;;;;;5081096;28;20262;-86
2024/03/06 05:56:23;;;;;;;7.77;5.70;;;7.10;99.90;;;;;;5057116;28;20217;-85
2024/03/06 05:58:49;;;;;;;6.57;5.30;;;7.60;99.90;;;;;;5053328;28;20231;-85
2024/03/06 06:01:20;;;;;;;8.40;7.60;;;7.50;99.90;;;;;;5058226;28;20694;-86
2024/03/06 06:03:46;;;;;;;6.40;4.63;;;7.50;99.90;;;;;;5059027;28;20178;-87
2024/03/06 06:06:15;;;;;;;7.38;5.40;;;7.80;99.90;;;;;;5061346;28;20222;-86
2024/03/06 06:08:40;;;;;;;6.00;5.32;;;7.10;99.90;;;;;;5059251;28;20491;-86
2024/03/06 06:11:06;;;;;;;8.43;5.00;;;7.80;99.90;;;;;;5060164;28;20194;-85
2024/03/06 06:13:31;;;;;;;7.97;4.83;;;7.70;99.90;;;;;;5062045;28;20181;-86
2024/03/06 06:16:02;;;;;;;6.17;5.50;;;7.70;99.90;;;;;;5061913;28;20222;-85
2024/03/06 06:18:28;;;;;;;5.82;4.80;;;8.20;99.90;;;;;;5059113;28;20182;-85
2024/03/06 06:20:54;;;;;;;5.57;5.07;;;7.90;99.90;;;;;;5060656;28;21258;-85
2024/03/06 06:23:19;;;;;;;5.33;4.83;;;7.40;99.90;;;;;;5059669;28;20251;-86
2024/03/06 06:25:45;;;;;;;6.00;5.40;;;8.10;99.90;;;;;;5060563;28;20304;-86
2024/03/06 06:28:11;;;;;;;8.33;4.57;;;7.80;99.90;;;;;;5061789;28;20186;-85
2024/03/06 06:30:38;;;;;;;6.03;4.90;;;8.30;99.90;;;;;;5057498;28;20432;-84
2024/03/06 06:33:04;;;;;;;6.78;5.20;;;8.00;99.90;;;;;;5052705;28;20186;-85
2024/03/06 06:35:30;;;;;;;7.82;4.65;;;7.90;99.90;;;;;;5055219;28;20220;-87
2024/03/06 06:37:55;;;;;;;6.70;5.10;;;7.90;99.90;;;;;;5058810;28;20174;-86
2024/03/06 06:40:50;;;;;;;7.03;5.70;;;8.10;99.90;;;;;;5060686;28;20193;-89
2024/03/06 06:43:16;;;;;;;9.90;7.65;;;8.00;99.90;;;;;;5056466;28;20182;-88
2024/03/06 06:46:05;;;;;;;5.80;5.20;;;8.20;99.90;;;;;;5066676;22;20251;-88
2024/03/06 06:49:24;;;;;;;7.45;5.25;;;7.00;99.90;;;;;;5093189;28;20301;-89
2024/03/06 06:51:53;;;;;;;5.40;4.90;;;;;;;;;;5083668;28;20193;-90
2024/03/06 06:54:37;;;;;;;;;;;;;;;;;;;;;
2024/03/06 06:58:01;;;;;;;;;;;;;;;;;;;;;
2024/03/06 07:00:37;;;;;;;10.45;5.50;;;9.00;99.90;;;;;;5075394;28;20197;-90
2024/03/06 07:03:03;;;;;;;6.38;5.22;;;10.00;99.90;;;;;;5108922;27;20240;-88
2024/03/06 07:05:29;;;;;;;8.65;5.97;;;;;;;;;;5089951;28;20370;-87
2024/03/06 07:07:55;;;;;;;7.40;5.90;;;8.10;99.90;;;;;;5095780;28;20194;-88
2024/03/06 07:10:21;;;;;;;7.10;5.97;;;7.50;99.90;;;;;;5114445;27;20408;-89
2024/03/06 07:12:46;;;;;;;8.70;6.60;;;8.40;99.90;;;;;;5096652;28;20189;-89
2024/03/06 07:15:14;;;;;;;7.37;5.77;;;8.20;99.90;;;;;;5107605;28;20495;-91
2024/03/06 07:17:39;;;;;;;7.10;6.40;;;8.20;99.90;;;;;;5109370;27;20255;-90
2024/03/06 07:20:06;;;;;;;7.40;5.10;;;10.40;99.90;;;;;;5092424;28;20172;-89
2024/03/06 07:22:33;;;;;;;6.10;5.50;;;;;;;;;;5101412;28;20229;-90
2024/03/06 07:25:02;;;;;;;7.55;6.10;;;8.30;99.90;;;;;;5096827;28;20181;-91
2024/03/06 07:27:28;;;;;;;7.50;5.35;;;8.80;99.90;;;;;;5090874;28;20255;-90
2024/03/06 07:29:53;;;;;;;6.83;5.50;;;8.50;99.90;;;;;;5107482;28;20370;-90
2024/03/06 07:32:19;;;;;;;6.00;4.97;;;8.80;99.90;;;;;;5086657;28;20332;-89
2024/03/06 07:34:45;;;;;;;6.53;5.83;;;8.60;99.90;;;;;;5108855;28;20464;-92
2024/03/06 07:37:12;;;;;;;7.97;6.33;;;8.30;99.90;;;;;;5085031;28;20208;-88
2024/03/06 07:39:41;;;;;;;6.97;5.35;;;8.30;99.90;;;;;;5092058;28;20199;-88
2024/03/06 07:42:10;;;;;;;7.78;5.55;;;8.40;99.90;;;;;;5086824;28;20256;-88
2024/03/06 07:44:38;;;;;;;8.10;5.82;;;8.10;99.90;;;;;;5088864;28;20207;-86
2024/03/06 07:57:20;;;;;;;7.68;6.85;;;8.40;99.90;;;;;;5050454;28;20677;-89
2024/03/06 07:59:49;;;;;;;13.38;7.53;;;8.50;99.90;;;;;;5050439;28;20178;-89
2024/03/06 08:02:37;;;;;;;10.27;8.00;;;11.30;99.90;;;;;;5044443;28;20188;-89
2024/03/06 08:11:58;;;;;;;8.68;6.80;;;;;;;;;;4912544;28;20221;-91
2024/03/06 08:14:25;;;;;;;9.30;7.00;;;;;;;;;;4966037;28;20267;-87
2024/03/06 08:16:51;;;;;;;7.43;6.53;;;8.10;99.90;;;;;;4973146;28;20226;-86
2024/03/06 08:19:17;;;;;;;8.47;6.80;;;;;;;;;;5032399;28;20190;-86
2024/03/06 08:21:43;;;;;;;8.52;5.63;;;;;;;;;;5051617;28;20235;-86
2024/03/06 08:24:08;;;;;;;7.47;6.30;;;8.50;99.90;;;;;;5048145;28;20178;-87
2024/03/06 08:27:21;;;;;;;5.83;5.33;;;8.70;99.90;;;;;;5054515;28;20204;-90
2024/03/06 08:29:48;;;;;;;5.10;4.70;;;;;;;;;;5053809;28;20245;-87
2024/03/06 08:32:14;;;;;;;6.60;6.00;;;8.90;99.90;;;;;;5048709;28;20182;-87
2024/03/06 08:34:39;;;;;;;6.73;5.70;;;8.70;99.90;;;;;;5047245;28;20235;-87
2024/03/06 08:37:06;;;;;;;6.13;4.73;;;9.20;99.90;;;;;;5050108;28;20629;-87
2024/03/06 08:39:32;;;;;;;5.38;4.88;;;9.00;99.90;;;;;;5049768;28;20510;-87
2024/03/06 08:41:58;;;;;;;5.78;5.20;;;9.40;99.90;;;;;;5051267;28;20204;-89
2024/03/06 08:44:30;;;;;;;5.57;5.00;;;9.30;99.90;;;;;;5045069;28;20190;-89
2024/03/06 08:46:59;;;;;;;7.80;5.70;;;9.00;99.90;;;;;;5116457;23;20464;-91
2024/03/06 08:49:48;;;;;;;6.47;5.88;;;7.10;99.90;;;;;;5082979;28;20285;-89
2024/03/06 08:52:14;;;;;;;9.25;7.70;;;9.10;99.90;;;;;;5061455;28;20197;-88
2024/03/06 08:55:00;;;;;;;9.40;6.07;;;10.20;99.90;;;;;;5089613;28;20637;-90
2024/03/06 08:57:28;;;;;;;7.40;6.68;;;;;;;;;;5084870;28;20431;-89
2024/03/06 08:59:54;;;;;;;8.20;6.25;;;;;;;;;;5085140;28;20180;-89
2024/03/06 09:02:20;;;;;;;6.43;5.85;;;9.10;99.90;;;;;;5090300;28;20188;-90
2024/03/06 09:04:46;;;;;;;7.10;5.87;;;9.20;99.90;;;;;;5089356;28;20214;-88
2024/03/06 09:07:12;;;;;;;6.47;5.40;;;9.30;99.90;;;;;;5089190;28;20928;-89
2024/03/06 09:09:38;;;;;;;7.18;5.70;;;9.20;99.90;;;;;;5091999;28;20185;-89
2024/03/06 09:12:11;;;;;;;7.65;5.30;;;9.40;99.90;;;;;;5086717;28;20185;-90
2024/03/06 09:14:38;;;;;;;7.57;6.05;;;9.50;99.90;;;;;;5086657;28;20193;-89
2024/03/06 09:17:05;;;;;;;5.65;5.05;;;9.80;99.90;;;;;;5087792;28;20213;-89
2024/03/06 09:19:34;;;;;;;7.80;6.30;;;8.90;99.90;;;;;;5097737;28;20184;-91
2024/03/06 09:21:59;;;;;;;9.80;5.68;;;9.50;99.90;;;;;;5105774;27;20586;-88
2024/03/06 09:24:26;;;;;;;7.87;6.57;;;8.90;99.90;;;;;;5091593;28;20206;-88
2024/03/06 09:26:52;;;;;;;7.75;5.95;;;8.70;99.90;;;;;;5089539;28;20554;-90
2024/03/06 09:29:19;;;;;;;6.07;5.45;;;9.30;99.90;;;;;;5084273;28;20548;-89
2024/03/06 09:31:44;;;;;;;6.82;6.07;;;8.90;99.90;;;;;;5090835;28;20470;-90
2024/03/06 09:34:12;;;;;;;6.50;5.73;;;9.00;99.90;;;;;;5097797;28;20184;-89
2024/03/06 09:36:39;;;;;;;9.68;6.00;;;9.20;99.90;;;;;;5093692;28;20250;-89
2024/03/06 09:39:05;;;;;;;7.43;5.60;;;9.30;99.90;;;;;;5093594;28;20343;-91
2024/03/06 09:41:31;;;;;;;10.00;6.17;;;9.60;99.90;;;;;;5088676;28;20294;-90
2024/03/06 09:43:58;;;;;;;8.17;6.20;;;9.30;99.90;;;;;;5097025;28;20271;-90
2024/03/06 09:46:26;;;;;;;7.60;6.18;;;9.50;99.90;;;;;;5091791;28;20224;-88
2024/03/06 09:48:53;;;;;;;7.00;6.07;;;9.60;99.90;;;;;;5088128;28;20182;-87
2024/03/06 09:51:20;;;;;;;6.22;5.63;;;9.60;99.90;;;;;;5090587;28;20188;-88
2024/03/06 09:53:49;;;;;;;7.28;6.57;;;9.20;99.90;;;;;;5091896;28;20193;-87
2024/03/06 09:56:15;;;;;;;7.78;7.00;;;9.10;99.90;;;;;;5086137;28;20216;-87
2024/03/06 09:58:40;;;;;;;8.35;6.88;;;8.90;99.90;;;;;;5087927;28;20177;-88
2024/03/06 10:01:07;;;;;;;9.23;7.20;;;8.60;99.90;;;;;;5092117;28;20181;-87
2024/03/06 10:03:33;;;;;;;12.30;7.80;;;9.30;99.90;;;;;;5090470;28;20192;-88
2024/03/06 10:06:00;;;;;;;8.50;7.70;;;9.10;99.90;;;;;;5089726;28;20253;-88
2024/03/06 10:08:26;;;;;;;8.73;7.93;;;8.80;99.90;;;;;;5084208;28;20223;-88
2024/03/06 10:10:52;;;;;;;11.75;9.20;;;9.50;99.90;;;;;;5094151;28;20177;-86
2024/03/06 10:13:17;;;;;;;9.07;8.27;;;9.40;99.90;;;;;;5088729;28;20189;-87
2024/03/06 10:15:58;;;;;;;10.00;7.60;;;9.60;99.90;;;;;;5095255;28;20295;-87
2024/03/06 10:18:31;;;;;;;9.95;9.05;;;9.20;99.90;;;;;;5093507;28;20177;-87
2024/03/06 10:20:57;;;;;;;11.45;8.85;;;9.00;99.90;;;;;;5090434;28;20192;-87
2024/03/06 10:23:23;;;;;;;10.25;8.35;;;9.70;99.90;;;;;;5082090;28;20191;-88
2024/03/06 10:25:53;;;;;;;10.47;9.40;;;9.60;99.90;;;;;;5081564;28;20295;-87
2024/03/06 10:28:22;;;;;;;11.45;9.10;;;9.20;99.90;;;;;;5085576;28;20449;-87
2024/03/06 10:30:47;;;;;;;9.40;8.48;;;8.90;99.90;;;;;;5083074;28;20184;-88
2024/03/06 10:33:14;;;;;;;9.57;8.60;;;9.30;99.90;;;;;;5087928;28;20184;-89
2024/03/06 10:35:44;;;;;;;11.40;9.55;;;9.50;99.90;;;;;;5089079;28;20211;-89
2024/03/06 10:38:13;;;;;;;11.57;10.35;;;9.30;99.90;;;;;;5088395;28;20227;-88
2024/03/06 10:40:41;;;;;;;10.45;8.90;;;9.00;99.90;;;;;;5086098;28;20186;-88
2024/03/06 10:43:41;;;;;;;10.05;9.15;;;9.30;99.90;;;;;;5090629;28;20173;-88
2024/03/06 10:46:28;;;;;;;10.45;9.52;;;9.70;99.90;;;;;;5058687;22;20222;-88
2024/03/06 10:48:58;;;;;;;10.88;9.88;;;9.80;99.90;;;;;;5054576;28;20293;-91
2024/03/06 10:51:26;;;;;;;11.20;10.18;;;11.80;99.90;;;;;;5053186;28;20193;-87
2024/03/06 10:53:53;;;;;;;12.05;10.95;;;10.30;99.90;;;;;;5054892;28;20208;-86
2024/03/06 10:56:21;;;;;;;12.63;11.43;;;9.80;99.90;;;;;;5046887;28;20215;-89
2024/03/06 10:58:50;;;;;;;12.45;11.25;;;11.20;99.90;;;;;;5054511;28;20605;-89
2024/03/06 11:01:17;;;;;;;11.98;10.73;;;10.60;99.90;;;;;;5034129;28;20190;-89
2024/03/06 11:03:42;;;;;;;13.57;11.98;;;9.90;99.90;;;;;;5032878;28;20285;-89
2024/03/06 11:06:08;;;;;;;13.50;12.10;;;9.60;99.90;;;;;;5037192;28;20226;-89
2024/03/06 11:08:33;;;;;;;14.70;12.03;;;9.90;99.90;;;;;;5029713;28;20278;-89
2024/03/06 11:11:22;;;;;;;14.50;13.00;;;9.40;99.90;;;;;;5038631;28;20221;-88
2024/03/06 11:13:48;;;;;;;14.75;12.70;;;9.50;99.90;;;;;;5061084;28;20220;-90
2024/03/06 11:16:14;;;;;;;13.68;12.00;;;10.10;99.90;;;;;;5026068;28;20227;-89
2024/03/06 11:18:39;;;;;;;14.17;12.30;;;9.10;99.90;;;;;;5027663;28;20216;-90
2024/03/06 11:21:08;;;;;;;15.30;13.67;;;9.20;99.90;;;;;;5025043;28;20269;-90
2024/03/06 11:23:34;;;;;;;14.57;12.80;;;9.70;99.90;;;;;;5041667;28;20186;-90
2024/03/06 11:26:04;;;;;;;17.10;13.95;;;9.20;99.90;;;;;;5021324;28;20652;-90
2024/03/06 11:28:35;;;;;;;14.52;13.02;;;11.40;99.90;;;;;;5027494;28;20250;-90
2024/03/06 11:31:06;;;;;;;17.70;13.60;;;8.80;99.90;;;;;;5029800;28;20229;-90
2024/03/06 11:33:38;;;;;;;17.27;13.90;;;9.30;99.90;;;;;;5028347;28;20693;-90
2024/03/06 11:36:30;;;;;;;17.15;14.77;;;9.20;99.90;;;;;;5032922;28;20211;-89
2024/03/06 11:39:00;;;;;;;15.95;13.80;;;9.20;99.90;;;;;;5038893;28;20182;-90
2024/03/06 11:41:27;;;;;;;18.25;15.98;;;9.30;99.90;;;;;;5030657;28;20198;-90
2024/03/06 11:43:55;;;;;;;17.77;14.77;;;9.20;99.90;;;;;;5034607;28;20182;-90
2024/03/06 11:46:21;;;;;;;19.60;15.40;;;9.10;99.90;;;;;;5038945;28;20728;-90
2024/03/06 11:48:55;;;;;;;16.77;15.07;;;9.00;99.90;;;;;;5033497;28;20296;-90
2024/03/06 11:51:24;;;;;;;17.90;15.90;;;9.10;99.90;;;;;;5045209;28;20192;-90
2024/03/06 11:53:51;;;;;;;18.13;14.70;;;9.50;99.90;;;;;;5029313;28;20185;-90
2024/03/06 11:56:21;;;;;;;23.38;17.35;;;9.40;99.90;;;;;;5030034;28;20218;-91
2024/03/06 11:58:56;;;;;;;20.45;16.45;;;9.20;99.90;;;;;;5027774;28;20287;-92
2024/03/06 12:01:22;;;;;;;18.10;15.73;;;9.30;99.90;;;;;;5033525;28;20182;-92
2024/03/06 12:03:48;;;;;;;20.47;17.53;;;9.10;99.90;;;;;;5035747;28;20179;-92
2024/03/06 12:06:16;;;;;;;21.07;16.80;;;9.10;99.90;;;;;;5032774;28;20957;-92
2024/03/06 12:08:48;;;;;;;22.30;15.90;;;9.00;99.90;;;;;;5033826;28;20240;-90
2024/03/06 12:11:44;;;;;;;20.90;16.95;;;8.90;99.90;;;;;;5029021;28;20252;-91
2024/03/06 12:14:19;;;;;;;17.85;15.70;;;9.30;99.90;;;;;;5031748;28;20196;-91
2024/03/06 12:16:59;;;;;;;19.63;16.20;;;9.00;99.90;;;;;;5046542;28;20214;-91
2024/03/06 12:19:29;;;;;;;19.70;16.73;;;9.30;99.90;;;;;;5030706;28;20329;-91
2024/03/06 12:21:55;;;;;;;19.02;16.15;;;8.90;99.90;;;;;;5031105;28;20718;-91
2024/03/06 12:24:23;;;;;;;18.40;16.37;;;;;;;;;;5029140;28;20269;-91
2024/03/06 12:27:03;;;;;;;19.23;17.13;;;9.10;99.90;;;;;;5031733;28;20216;-91
2024/03/06 12:29:31;;;;;;;20.85;17.00;;;9.40;99.90;;;;;;5034262;28;20247;-91
2024/03/06 12:31:57;;;;;;;17.83;16.00;;;8.90;99.90;;;;;;5034489;28;20723;-89
2024/03/06 12:34:23;;;;;;;20.80;15.83;;;;;;;;;;5033692;28;20205;-89
2024/03/06 12:37:13;;;;;;;19.98;16.05;;;9.10;99.90;;;;;;5037437;28;20501;-91
2024/03/06 12:39:39;;;;;;;19.65;15.65;;;11.10;99.90;;;;;;5032636;28;20243;-91
2024/03/06 13:03:36;;;;;;;23.70;17.65;;;7.50;99.90;;;;;;5014362;28;20320;-94
2024/03/06 13:06:21;;;;;;;24.77;18.10;;;10.40;99.90;;;;;;5009872;28;20211;-90
2024/03/06 13:08:54;;;;;;;22.15;17.05;;;8.00;99.90;;;;;;5010816;28;20180;-91
2024/03/06 13:11:19;;;;;;;20.52;17.63;;;11.00;99.90;;;;;;5009916;28;20603;-90
2024/03/06 13:13:45;;;;;;;21.80;17.37;;;8.70;99.90;;;;;;5005157;28;20325;-91
2024/03/06 13:16:11;;;;;;;21.07;17.20;;;;;;;;;;5010593;28;20241;-90
2024/03/06 13:18:37;;;;;;;22.60;18.67;;;8.70;99.90;;;;;;5012533;28;20611;-90
2024/03/06 13:21:02;;;;;;;20.23;16.75;;;10.10;99.90;;;;;;5012681;28;20529;-89
2024/03/06 13:23:28;;;;;;;20.30;16.23;;;;;;;;;;5010333;28;20250;-90
2024/03/06 13:25:54;;;;;;;20.85;17.50;;;8.80;99.90;;;;;;5013653;28;20708;-91
2024/03/06 13:28:21;;;;;;;19.90;16.53;;;;;;;;;;5018020;28;20214;-94
2024/03/06 13:30:46;;;;;;;19.15;15.68;;;8.80;99.90;;;;;;5019096;28;20183;-91
2024/03/06 13:33:13;;;;;;;19.63;16.53;;;;;;;;;;5021864;28;20207;-93
2024/03/06 13:35:39;;;;;;;20.30;16.20;;;9.10;99.90;;;;;;5019760;28;20215;-92
2024/03/06 13:38:05;;;;;;;19.58;16.27;;;;;;;;;;5011260;28;20197;-92
2024/03/06 13:40:33;;;;;;;17.40;15.52;;;8.80;99.90;;;;;;5007018;28;20606;-92
2024/03/06 13:43:00;;;;;;;17.70;15.30;;;;;;;;;;5011603;28;20179;-91